sensor_id;sensor_type;location;lat;lon;timestamp;P1;durP1;ratioP1;P2;durP2;ratioP2
77359;SDS011;66426;51.454;7.266;2023-03-23T00:00:48;4.03;;;2.35;;
77359;SDS011;66426;51.454;7.266;2023-03-23T00:01:49;4.03;;;2.50;;
77359;SDS011;66426;51.454;7.266;2023-03-23T00:02:50;5.93;;;2.67;;
77359;SDS011;66426;51.454;7.266;2023-03-23T00:03:51;4.95;;;2.80;;
77359;SDS011;66426;51.454;7.266;2023-03-23T00:04:52;4.95;;;2.35;;
77359;SDS011;66426;51.454;7.266;2023-03-23T00:05:53;5.40;;;2.40;;
77359;SDS011;66426;51.454;7.266;2023-03-23T00:06:59;4.47;;;2.40;;
77359;SDS011;66426;51.454;7.266;2023-03-23T00:08:03;5.22;;;2.60;;
77359;SDS011;66426;51.454;7.266;2023-03-23T00:09:04;6.95;;;2.78;;
77359;SDS011;66426;51.454;7.266;2023-03-23T00:10:06;4.18;;;2.40;;
77359;SDS011;66426;51.454;7.266;2023-03-23T00:11:07;8.18;;;2.67;;
77359;SDS011;66426;51.454;7.266;2023-03-23T00:12:08;5.50;;;2.40;;
77359;SDS011;66426;51.454;7.266;2023-03-23T00:13:08;6.13;;;2.95;;
77359;SDS011;66426;51.454;7.266;2023-03-23T00:14:11;4.72;;;2.72;;
77359;SDS011;66426;51.454;7.266;2023-03-23T00:15:16;3.88;;;2.30;;
77359;SDS011;66426;51.454;7.266;2023-03-23T00:16:18;4.07;;;2.30;;
77359;SDS011;66426;51.454;7.266;2023-03-23T00:17:19;4.68;;;2.20;;
77359;SDS011;66426;51.454;7.266;2023-03-23T00:18:20;6.18;;;2.70;;
77359;SDS011;66426;51.454;7.266;2023-03-23T00:19:23;3.30;;;2.25;;
77359;SDS011;66426;51.454;7.266;2023-03-23T00:20:24;4.82;;;2.00;;
77359;SDS011;66426;51.454;7.266;2023-03-23T00:21:25;4.38;;;2.50;;
77359;SDS011;66426;51.454;7.266;2023-03-23T00:22:33;4.22;;;2.17;;
77359;SDS011;66426;51.454;7.266;2023-03-23T00:23:38;3.67;;;2.20;;
77359;SDS011;66426;51.454;7.266;2023-03-23T00:24:39;3.88;;;2.53;;
77359;SDS011;66426;51.454;7.266;2023-03-23T00:25:40;3.22;;;1.90;;
77359;SDS011;66426;51.454;7.266;2023-03-23T00:26:41;5.32;;;2.40;;
77359;SDS011;66426;51.454;7.266;2023-03-23T00:27:42;3.70;;;2.00;;
77359;SDS011;66426;51.454;7.266;2023-03-23T00:28:42;4.28;;;1.98;;
77359;SDS011;66426;51.454;7.266;2023-03-23T00:29:43;5.88;;;2.08;;
77359;SDS011;66426;51.454;7.266;2023-03-23T00:30:46;3.60;;;2.00;;
77359;SDS011;66426;51.454;7.266;2023-03-23T00:31:47;3.28;;;1.90;;
77359;SDS011;66426;51.454;7.266;2023-03-23T00:32:48;7.05;;;2.17;;
77359;SDS011;66426;51.454;7.266;2023-03-23T00:33:51;5.47;;;1.92;;
77359;SDS011;66426;51.454;7.266;2023-03-23T00:34:51;2.38;;;1.90;;
77359;SDS011;66426;51.454;7.266;2023-03-23T00:35:52;3.45;;;2.05;;
77359;SDS011;66426;51.454;7.266;2023-03-23T00:36:54;3.55;;;2.00;;
77359;SDS011;66426;51.454;7.266;2023-03-23T00:37:57;4.43;;;2.03;;
77359;SDS011;66426;51.454;7.266;2023-03-23T00:38:59;6.13;;;2.20;;
77359;SDS011;66426;51.454;7.266;2023-03-23T00:40:01;4.43;;;1.98;;
77359;SDS011;66426;51.454;7.266;2023-03-23T00:41:02;4.13;;;2.10;;
77359;SDS011;66426;51.454;7.266;2023-03-23T00:42:05;3.00;;;2.08;;
77359;SDS011;66426;51.454;7.266;2023-03-23T00:43:06;4.35;;;1.95;;
77359;SDS011;66426;51.454;7.266;2023-03-23T00:44:08;3.60;;;1.90;;
77359;SDS011;66426;51.454;7.266;2023-03-23T00:45:09;3.38;;;2.00;;
77359;SDS011;66426;51.454;7.266;2023-03-23T00:46:12;5.63;;;2.15;;
77359;SDS011;66426;51.454;7.266;2023-03-23T00:47:13;4.85;;;1.95;;
77359;SDS011;66426;51.454;7.266;2023-03-23T00:48:16;3.25;;;1.83;;
77359;SDS011;66426;51.454;7.266;2023-03-23T00:49:18;4.68;;;2.00;;
77359;SDS011;66426;51.454;7.266;2023-03-23T00:50:19;3.22;;;2.05;;
77359;SDS011;66426;51.454;7.266;2023-03-23T00:51:19;4.47;;;2.30;;
77359;SDS011;66426;51.454;7.266;2023-03-23T00:52:20;4.03;;;1.90;;
77359;SDS011;66426;51.454;7.266;2023-03-23T00:53:21;2.78;;;1.73;;
77359;SDS011;66426;51.454;7.266;2023-03-23T00:54:22;3.60;;;1.80;;
77359;SDS011;66426;51.454;7.266;2023-03-23T00:55:23;4.38;;;1.80;;
77359;SDS011;66426;51.454;7.266;2023-03-23T00:56:24;3.22;;;2.00;;
77359;SDS011;66426;51.454;7.266;2023-03-23T00:57:26;3.05;;;1.98;;
77359;SDS011;66426;51.454;7.266;2023-03-23T00:58:27;5.55;;;2.00;;
77359;SDS011;66426;51.454;7.266;2023-03-23T00:59:28;5.70;;;1.88;;
77359;SDS011;66426;51.454;7.266;2023-03-23T01:00:29;3.45;;;1.70;;
77359;SDS011;66426;51.454;7.266;2023-03-23T01:01:31;2.83;;;1.95;;
77359;SDS011;66426;51.454;7.266;2023-03-23T01:02:32;2.20;;;1.65;;
77359;SDS011;66426;51.454;7.266;2023-03-23T01:03:33;2.53;;;1.73;;
77359;SDS011;66426;51.454;7.266;2023-03-23T01:04:37;3.53;;;1.83;;
77359;SDS011;66426;51.454;7.266;2023-03-23T01:05:38;5.88;;;1.90;;
77359;SDS011;66426;51.454;7.266;2023-03-23T01:06:41;3.38;;;1.90;;
77359;SDS011;66426;51.454;7.266;2023-03-23T01:07:42;3.35;;;1.80;;
77359;SDS011;66426;51.454;7.266;2023-03-23T01:08:44;2.72;;;1.80;;
77359;SDS011;66426;51.454;7.266;2023-03-23T01:09:49;3.25;;;1.80;;
77359;SDS011;66426;51.454;7.266;2023-03-23T01:10:50;7.05;;;2.10;;
77359;SDS011;66426;51.454;7.266;2023-03-23T01:11:51;3.20;;;2.00;;
77359;SDS011;66426;51.454;7.266;2023-03-23T01:12:52;5.90;;;1.77;;
77359;SDS011;66426;51.454;7.266;2023-03-23T01:13:53;2.90;;;1.75;;
77359;SDS011;66426;51.454;7.266;2023-03-23T01:14:53;4.85;;;1.70;;
77359;SDS011;66426;51.454;7.266;2023-03-23T01:15:54;3.03;;;1.73;;
77359;SDS011;66426;51.454;7.266;2023-03-23T01:16:56;4.13;;;1.90;;
77359;SDS011;66426;51.454;7.266;2023-03-23T01:17:57;2.45;;;1.85;;
77359;SDS011;66426;51.454;7.266;2023-03-23T01:18:58;4.85;;;1.88;;
77359;SDS011;66426;51.454;7.266;2023-03-23T01:19:58;3.20;;;1.63;;
77359;SDS011;66426;51.454;7.266;2023-03-23T01:21:03;3.85;;;1.98;;
77359;SDS011;66426;51.454;7.266;2023-03-23T01:22:04;3.90;;;2.65;;
77359;SDS011;66426;51.454;7.266;2023-03-23T01:23:04;2.33;;;1.77;;
77359;SDS011;66426;51.454;7.266;2023-03-23T01:24:06;3.42;;;2.00;;
77359;SDS011;66426;51.454;7.266;2023-03-23T01:25:07;3.10;;;1.85;;
77359;SDS011;66426;51.454;7.266;2023-03-23T01:26:09;4.80;;;1.80;;
77359;SDS011;66426;51.454;7.266;2023-03-23T01:27:10;3.33;;;1.63;;
77359;SDS011;66426;51.454;7.266;2023-03-23T01:28:11;2.53;;;1.77;;
77359;SDS011;66426;51.454;7.266;2023-03-23T01:29:12;2.60;;;1.70;;
77359;SDS011;66426;51.454;7.266;2023-03-23T01:30:13;5.43;;;2.00;;
77359;SDS011;66426;51.454;7.266;2023-03-23T01:31:15;2.40;;;1.80;;
77359;SDS011;66426;51.454;7.266;2023-03-23T01:32:17;3.47;;;1.75;;
77359;SDS011;66426;51.454;7.266;2023-03-23T01:33:18;3.47;;;1.92;;
77359;SDS011;66426;51.454;7.266;2023-03-23T01:34:19;4.28;;;1.80;;
77359;SDS011;66426;51.454;7.266;2023-03-23T01:35:20;2.78;;;1.90;;
77359;SDS011;66426;51.454;7.266;2023-03-23T01:36:22;4.82;;;1.85;;
77359;SDS011;66426;51.454;7.266;2023-03-23T01:37:23;4.63;;;1.90;;
77359;SDS011;66426;51.454;7.266;2023-03-23T01:38:26;3.58;;;1.98;;
77359;SDS011;66426;51.454;7.266;2023-03-23T01:39:27;2.63;;;1.90;;
77359;SDS011;66426;51.454;7.266;2023-03-23T01:40:28;3.30;;;1.80;;
77359;SDS011;66426;51.454;7.266;2023-03-23T01:41:28;4.57;;;1.67;;
77359;SDS011;66426;51.454;7.266;2023-03-23T01:42:30;3.28;;;1.77;;
77359;SDS011;66426;51.454;7.266;2023-03-23T01:43:31;5.15;;;2.10;;
77359;SDS011;66426;51.454;7.266;2023-03-23T01:45:51;4.10;;;1.80;;
77359;SDS011;66426;51.454;7.266;2023-03-23T01:46:52;2.60;;;1.63;;
77359;SDS011;66426;51.454;7.266;2023-03-23T01:47:57;2.97;;;2.00;;
77359;SDS011;66426;51.454;7.266;2023-03-23T01:49:01;3.20;;;1.70;;
77359;SDS011;66426;51.454;7.266;2023-03-23T01:50:06;3.05;;;1.88;;
77359;SDS011;66426;51.454;7.266;2023-03-23T01:51:09;2.78;;;1.80;;
77359;SDS011;66426;51.454;7.266;2023-03-23T01:52:13;3.70;;;1.90;;
77359;SDS011;66426;51.454;7.266;2023-03-23T01:53:17;3.58;;;1.90;;
77359;SDS011;66426;51.454;7.266;2023-03-23T01:54:18;3.58;;;1.90;;
77359;SDS011;66426;51.454;7.266;2023-03-23T01:55:21;3.55;;;1.65;;
77359;SDS011;66426;51.454;7.266;2023-03-23T01:56:23;3.35;;;1.80;;
77359;SDS011;66426;51.454;7.266;2023-03-23T01:57:25;2.83;;;1.90;;
77359;SDS011;66426;51.454;7.266;2023-03-23T01:58:31;3.00;;;1.77;;
77359;SDS011;66426;51.454;7.266;2023-03-23T01:59:32;3.38;;;1.90;;
77359;SDS011;66426;51.454;7.266;2023-03-23T02:00:34;3.40;;;2.00;;
77359;SDS011;66426;51.454;7.266;2023-03-23T02:01:35;3.15;;;1.98;;
77359;SDS011;66426;51.454;7.266;2023-03-23T02:02:38;2.85;;;1.70;;
77359;SDS011;66426;51.454;7.266;2023-03-23T02:03:41;3.20;;;1.90;;
77359;SDS011;66426;51.454;7.266;2023-03-23T02:04:42;3.97;;;1.90;;
77359;SDS011;66426;51.454;7.266;2023-03-23T02:05:44;2.35;;;1.65;;
77359;SDS011;66426;51.454;7.266;2023-03-23T02:06:45;3.30;;;1.63;;
77359;SDS011;66426;51.454;7.266;2023-03-23T02:07:46;3.78;;;1.70;;
77359;SDS011;66426;51.454;7.266;2023-03-23T02:08:48;3.45;;;1.42;;
77359;SDS011;66426;51.454;7.266;2023-03-23T02:09:50;2.08;;;1.60;;
77359;SDS011;66426;51.454;7.266;2023-03-23T02:10:50;3.30;;;1.80;;
77359;SDS011;66426;51.454;7.266;2023-03-23T02:11:51;3.13;;;1.48;;
77359;SDS011;66426;51.454;7.266;2023-03-23T02:12:53;3.83;;;1.70;;
77359;SDS011;66426;51.454;7.266;2023-03-23T02:13:53;2.38;;;1.80;;
77359;SDS011;66426;51.454;7.266;2023-03-23T02:14:54;3.17;;;1.90;;
77359;SDS011;66426;51.454;7.266;2023-03-23T02:15:58;2.67;;;1.70;;
77359;SDS011;66426;51.454;7.266;2023-03-23T02:17:03;3.85;;;1.80;;
77359;SDS011;66426;51.454;7.266;2023-03-23T02:18:06;4.05;;;2.35;;
77359;SDS011;66426;51.454;7.266;2023-03-23T02:19:14;2.97;;;2.10;;
77359;SDS011;66426;51.454;7.266;2023-03-23T02:20:27;3.13;;;1.80;;
77359;SDS011;66426;51.454;7.266;2023-03-23T02:22:57;4.15;;;1.83;;
77359;SDS011;66426;51.454;7.266;2023-03-23T02:24:14;2.95;;;1.65;;
77359;SDS011;66426;51.454;7.266;2023-03-23T02:25:26;5.22;;;2.13;;
77359;SDS011;66426;51.454;7.266;2023-03-23T02:26:33;3.33;;;1.80;;
77359;SDS011;66426;51.454;7.266;2023-03-23T02:27:40;4.78;;;1.65;;
77359;SDS011;66426;51.454;7.266;2023-03-23T02:29:02;3.75;;;1.80;;
77359;SDS011;66426;51.454;7.266;2023-03-23T02:30:08;2.38;;;1.70;;
77359;SDS011;66426;51.454;7.266;2023-03-23T02:31:15;3.42;;;1.73;;
77359;SDS011;66426;51.454;7.266;2023-03-23T02:32:23;2.65;;;1.70;;
77359;SDS011;66426;51.454;7.266;2023-03-23T02:33:30;3.03;;;1.70;;
77359;SDS011;66426;51.454;7.266;2023-03-23T02:34:34;3.40;;;1.88;;
77359;SDS011;66426;51.454;7.266;2023-03-23T02:35:39;3.13;;;1.70;;
77359;SDS011;66426;51.454;7.266;2023-03-23T02:36:44;4.00;;;2.00;;
77359;SDS011;66426;51.454;7.266;2023-03-23T02:37:48;2.75;;;2.00;;
77359;SDS011;66426;51.454;7.266;2023-03-23T02:38:52;2.80;;;1.83;;
77359;SDS011;66426;51.454;7.266;2023-03-23T02:39:54;2.55;;;1.92;;
77359;SDS011;66426;51.454;7.266;2023-03-23T02:40:57;3.53;;;1.92;;
77359;SDS011;66426;51.454;7.266;2023-03-23T02:42:00;4.05;;;1.88;;
77359;SDS011;66426;51.454;7.266;2023-03-23T02:43:03;3.58;;;1.88;;
77359;SDS011;66426;51.454;7.266;2023-03-23T02:44:07;3.67;;;1.90;;
77359;SDS011;66426;51.454;7.266;2023-03-23T02:45:09;3.22;;;1.98;;
77359;SDS011;66426;51.454;7.266;2023-03-23T02:46:10;3.00;;;1.88;;
77359;SDS011;66426;51.454;7.266;2023-03-23T02:47:14;3.75;;;1.85;;
77359;SDS011;66426;51.454;7.266;2023-03-23T02:48:17;4.80;;;1.92;;
77359;SDS011;66426;51.454;7.266;2023-03-23T02:49:20;3.50;;;1.85;;
77359;SDS011;66426;51.454;7.266;2023-03-23T02:50:23;4.90;;;2.15;;
77359;SDS011;66426;51.454;7.266;2023-03-23T02:51:25;2.42;;;1.85;;
77359;SDS011;66426;51.454;7.266;2023-03-23T02:52:27;2.85;;;1.95;;
77359;SDS011;66426;51.454;7.266;2023-03-23T02:53:29;2.08;;;1.67;;
77359;SDS011;66426;51.454;7.266;2023-03-23T02:54:30;2.90;;;1.90;;
77359;SDS011;66426;51.454;7.266;2023-03-23T02:55:31;3.63;;;2.10;;
77359;SDS011;66426;51.454;7.266;2023-03-23T02:56:32;3.58;;;1.80;;
77359;SDS011;66426;51.454;7.266;2023-03-23T02:57:34;4.38;;;2.10;;
77359;SDS011;66426;51.454;7.266;2023-03-23T02:58:35;3.40;;;1.92;;
77359;SDS011;66426;51.454;7.266;2023-03-23T02:59:36;3.08;;;1.80;;
77359;SDS011;66426;51.454;7.266;2023-03-23T03:00:37;3.03;;;1.70;;
77359;SDS011;66426;51.454;7.266;2023-03-23T03:01:52;2.80;;;2.00;;
77359;SDS011;66426;51.454;7.266;2023-03-23T03:02:55;3.13;;;1.98;;
77359;SDS011;66426;51.454;7.266;2023-03-23T03:03:56;3.22;;;1.80;;
77359;SDS011;66426;51.454;7.266;2023-03-23T03:05:00;4.18;;;2.00;;
77359;SDS011;66426;51.454;7.266;2023-03-23T03:06:06;2.42;;;1.63;;
77359;SDS011;66426;51.454;7.266;2023-03-23T03:07:16;3.00;;;1.90;;
77359;SDS011;66426;51.454;7.266;2023-03-23T03:08:21;3.40;;;1.90;;
77359;SDS011;66426;51.454;7.266;2023-03-23T03:09:25;2.83;;;1.70;;
77359;SDS011;66426;51.454;7.266;2023-03-23T03:10:28;4.35;;;1.70;;
77359;SDS011;66426;51.454;7.266;2023-03-23T03:11:31;4.32;;;1.90;;
77359;SDS011;66426;51.454;7.266;2023-03-23T03:12:35;3.85;;;1.67;;
77359;SDS011;66426;51.454;7.266;2023-03-23T03:13:39;3.20;;;1.85;;
77359;SDS011;66426;51.454;7.266;2023-03-23T03:14:44;2.78;;;1.75;;
77359;SDS011;66426;51.454;7.266;2023-03-23T03:15:49;2.83;;;1.83;;
77359;SDS011;66426;51.454;7.266;2023-03-23T03:16:56;3.13;;;1.85;;
77359;SDS011;66426;51.454;7.266;2023-03-23T03:18:00;2.92;;;1.77;;
77359;SDS011;66426;51.454;7.266;2023-03-23T03:19:03;2.38;;;1.70;;
77359;SDS011;66426;51.454;7.266;2023-03-23T03:20:07;2.88;;;1.70;;
77359;SDS011;66426;51.454;7.266;2023-03-23T03:21:11;5.70;;;1.92;;
77359;SDS011;66426;51.454;7.266;2023-03-23T03:22:13;3.47;;;2.00;;
77359;SDS011;66426;51.454;7.266;2023-03-23T03:23:14;3.75;;;1.90;;
77359;SDS011;66426;51.454;7.266;2023-03-23T03:24:18;2.85;;;1.90;;
77359;SDS011;66426;51.454;7.266;2023-03-23T03:25:19;3.05;;;1.90;;
77359;SDS011;66426;51.454;7.266;2023-03-23T03:26:20;2.78;;;1.70;;
77359;SDS011;66426;51.454;7.266;2023-03-23T03:27:21;3.28;;;1.65;;
77359;SDS011;66426;51.454;7.266;2023-03-23T03:28:23;3.75;;;2.00;;
77359;SDS011;66426;51.454;7.266;2023-03-23T03:29:28;2.35;;;1.50;;
77359;SDS011;66426;51.454;7.266;2023-03-23T03:30:30;2.15;;;1.60;;
77359;SDS011;66426;51.454;7.266;2023-03-23T03:31:34;3.17;;;1.73;;
77359;SDS011;66426;51.454;7.266;2023-03-23T03:32:36;2.38;;;1.80;;
77359;SDS011;66426;51.454;7.266;2023-03-23T03:33:39;2.30;;;1.67;;
77359;SDS011;66426;51.454;7.266;2023-03-23T03:34:40;4.43;;;2.03;;
77359;SDS011;66426;51.454;7.266;2023-03-23T03:35:43;3.10;;;1.77;;
77359;SDS011;66426;51.454;7.266;2023-03-23T03:36:44;2.88;;;1.90;;
77359;SDS011;66426;51.454;7.266;2023-03-23T03:37:46;3.20;;;1.70;;
77359;SDS011;66426;51.454;7.266;2023-03-23T03:38:47;2.58;;;1.73;;
77359;SDS011;66426;51.454;7.266;2023-03-23T03:39:48;2.28;;;1.60;;
77359;SDS011;66426;51.454;7.266;2023-03-23T03:40:49;3.10;;;1.92;;
77359;SDS011;66426;51.454;7.266;2023-03-23T03:41:50;3.30;;;1.60;;
77359;SDS011;66426;51.454;7.266;2023-03-23T03:42:51;3.30;;;1.52;;
77359;SDS011;66426;51.454;7.266;2023-03-23T03:43:52;7.03;;;1.70;;
77359;SDS011;66426;51.454;7.266;2023-03-23T03:44:52;1.48;;;1.20;;
77359;SDS011;66426;51.454;7.266;2023-03-23T03:45:53;3.13;;;1.90;;
77359;SDS011;66426;51.454;7.266;2023-03-23T03:46:54;3.78;;;2.25;;
77359;SDS011;66426;51.454;7.266;2023-03-23T03:47:54;3.30;;;1.50;;
77359;SDS011;66426;51.454;7.266;2023-03-23T03:48:55;2.13;;;1.60;;
77359;SDS011;66426;51.454;7.266;2023-03-23T03:49:59;3.10;;;1.83;;
77359;SDS011;66426;51.454;7.266;2023-03-23T03:51:01;2.65;;;1.23;;
77359;SDS011;66426;51.454;7.266;2023-03-23T03:52:03;2.22;;;1.58;;
77359;SDS011;66426;51.454;7.266;2023-03-23T03:53:04;2.03;;;1.40;;
77359;SDS011;66426;51.454;7.266;2023-03-23T03:54:06;2.85;;;1.70;;
77359;SDS011;66426;51.454;7.266;2023-03-23T03:55:07;2.72;;;1.60;;
77359;SDS011;66426;51.454;7.266;2023-03-23T03:56:09;2.95;;;1.55;;
77359;SDS011;66426;51.454;7.266;2023-03-23T03:57:10;2.75;;;1.58;;
77359;SDS011;66426;51.454;7.266;2023-03-23T03:58:12;1.95;;;1.48;;
77359;SDS011;66426;51.454;7.266;2023-03-23T03:59:13;2.95;;;1.70;;
77359;SDS011;66426;51.454;7.266;2023-03-23T04:00:14;2.85;;;1.60;;
77359;SDS011;66426;51.454;7.266;2023-03-23T04:01:15;3.80;;;1.67;;
77359;SDS011;66426;51.454;7.266;2023-03-23T04:02:16;3.22;;;1.73;;
77359;SDS011;66426;51.454;7.266;2023-03-23T04:03:20;2.67;;;1.58;;
77359;SDS011;66426;51.454;7.266;2023-03-23T04:04:21;2.38;;;1.80;;
77359;SDS011;66426;51.454;7.266;2023-03-23T04:05:22;3.00;;;1.88;;
77359;SDS011;66426;51.454;7.266;2023-03-23T04:06:24;1.85;;;1.48;;
77359;SDS011;66426;51.454;7.266;2023-03-23T04:07:28;3.70;;;1.70;;
77359;SDS011;66426;51.454;7.266;2023-03-23T04:08:29;3.38;;;1.80;;
77359;SDS011;66426;51.454;7.266;2023-03-23T04:09:30;2.70;;;1.48;;
77359;SDS011;66426;51.454;7.266;2023-03-23T04:10:31;2.50;;;1.50;;
77359;SDS011;66426;51.454;7.266;2023-03-23T04:11:32;2.03;;;1.50;;
77359;SDS011;66426;51.454;7.266;2023-03-23T04:12:33;2.53;;;1.60;;
77359;SDS011;66426;51.454;7.266;2023-03-23T04:13:34;1.95;;;1.48;;
77359;SDS011;66426;51.454;7.266;2023-03-23T04:14:35;2.60;;;1.60;;
77359;SDS011;66426;51.454;7.266;2023-03-23T04:15:35;2.35;;;1.63;;
77359;SDS011;66426;51.454;7.266;2023-03-23T04:16:37;2.20;;;1.50;;
77359;SDS011;66426;51.454;7.266;2023-03-23T04:17:37;2.45;;;1.42;;
77359;SDS011;66426;51.454;7.266;2023-03-23T04:18:38;3.58;;;1.70;;
77359;SDS011;66426;51.454;7.266;2023-03-23T04:19:39;2.55;;;1.60;;
77359;SDS011;66426;51.454;7.266;2023-03-23T04:20:40;2.75;;;1.70;;
77359;SDS011;66426;51.454;7.266;2023-03-23T04:21:42;2.38;;;1.90;;
77359;SDS011;66426;51.454;7.266;2023-03-23T04:22:43;2.15;;;1.60;;
77359;SDS011;66426;51.454;7.266;2023-03-23T04:23:44;2.33;;;1.83;;
77359;SDS011;66426;51.454;7.266;2023-03-23T04:24:44;1.42;;;1.20;;
77359;SDS011;66426;51.454;7.266;2023-03-23T04:25:45;2.38;;;1.67;;
77359;SDS011;66426;51.454;7.266;2023-03-23T04:26:47;4.07;;;2.05;;
77359;SDS011;66426;51.454;7.266;2023-03-23T04:27:48;1.70;;;1.45;;
77359;SDS011;66426;51.454;7.266;2023-03-23T04:28:52;4.78;;;1.80;;
77359;SDS011;66426;51.454;7.266;2023-03-23T04:29:53;3.50;;;1.65;;
77359;SDS011;66426;51.454;7.266;2023-03-23T04:30:54;1.83;;;1.52;;
77359;SDS011;66426;51.454;7.266;2023-03-23T04:31:55;3.80;;;1.90;;
77359;SDS011;66426;51.454;7.266;2023-03-23T04:32:56;3.45;;;1.58;;
77359;SDS011;66426;51.454;7.266;2023-03-23T04:33:57;3.45;;;1.67;;
77359;SDS011;66426;51.454;7.266;2023-03-23T04:34:58;2.65;;;1.67;;
77359;SDS011;66426;51.454;7.266;2023-03-23T04:36:00;2.53;;;1.60;;
77359;SDS011;66426;51.454;7.266;2023-03-23T04:37:04;2.40;;;1.70;;
77359;SDS011;66426;51.454;7.266;2023-03-23T04:38:04;3.22;;;1.92;;
77359;SDS011;66426;51.454;7.266;2023-03-23T04:39:05;2.65;;;1.88;;
77359;SDS011;66426;51.454;7.266;2023-03-23T04:40:10;2.38;;;1.67;;
77359;SDS011;66426;51.454;7.266;2023-03-23T04:41:14;3.80;;;1.60;;
77359;SDS011;66426;51.454;7.266;2023-03-23T04:42:15;4.15;;;1.73;;
77359;SDS011;66426;51.454;7.266;2023-03-23T04:43:16;2.42;;;1.63;;
77359;SDS011;66426;51.454;7.266;2023-03-23T04:44:17;3.00;;;1.70;;
77359;SDS011;66426;51.454;7.266;2023-03-23T04:45:18;2.15;;;1.60;;
77359;SDS011;66426;51.454;7.266;2023-03-23T04:46:22;2.55;;;1.60;;
77359;SDS011;66426;51.454;7.266;2023-03-23T04:47:23;2.90;;;1.60;;
77359;SDS011;66426;51.454;7.266;2023-03-23T04:48:25;3.72;;;1.70;;
77359;SDS011;66426;51.454;7.266;2023-03-23T04:49:26;1.75;;;1.60;;
77359;SDS011;66426;51.454;7.266;2023-03-23T04:50:28;2.42;;;1.60;;
77359;SDS011;66426;51.454;7.266;2023-03-23T04:51:31;1.70;;;1.45;;
77359;SDS011;66426;51.454;7.266;2023-03-23T04:52:33;2.40;;;1.77;;
77359;SDS011;66426;51.454;7.266;2023-03-23T04:53:34;2.92;;;1.50;;
77359;SDS011;66426;51.454;7.266;2023-03-23T04:54:34;2.05;;;1.60;;
77359;SDS011;66426;51.454;7.266;2023-03-23T04:55:35;3.88;;;1.70;;
77359;SDS011;66426;51.454;7.266;2023-03-23T04:56:36;3.63;;;1.70;;
77359;SDS011;66426;51.454;7.266;2023-03-23T04:57:37;3.05;;;1.90;;
77359;SDS011;66426;51.454;7.266;2023-03-23T04:58:38;1.65;;;1.50;;
77359;SDS011;66426;51.454;7.266;2023-03-23T04:59:40;3.30;;;1.92;;
77359;SDS011;66426;51.454;7.266;2023-03-23T05:00:41;3.72;;;1.42;;
77359;SDS011;66426;51.454;7.266;2023-03-23T05:01:44;2.80;;;1.63;;
77359;SDS011;66426;51.454;7.266;2023-03-23T05:02:46;2.05;;;1.60;;
77359;SDS011;66426;51.454;7.266;2023-03-23T05:03:53;3.05;;;1.67;;
77359;SDS011;66426;51.454;7.266;2023-03-23T05:04:53;2.50;;;1.63;;
77359;SDS011;66426;51.454;7.266;2023-03-23T05:05:54;2.08;;;1.40;;
77359;SDS011;66426;51.454;7.266;2023-03-23T05:06:55;2.63;;;1.60;;
77359;SDS011;66426;51.454;7.266;2023-03-23T05:07:57;3.33;;;2.00;;
77359;SDS011;66426;51.454;7.266;2023-03-23T05:08:58;2.22;;;1.42;;
77359;SDS011;66426;51.454;7.266;2023-03-23T05:09:58;4.63;;;1.67;;
77359;SDS011;66426;51.454;7.266;2023-03-23T05:11:00;2.38;;;1.45;;
77359;SDS011;66426;51.454;7.266;2023-03-23T05:12:03;2.75;;;1.65;;
77359;SDS011;66426;51.454;7.266;2023-03-23T05:13:04;3.10;;;1.52;;
77359;SDS011;66426;51.454;7.266;2023-03-23T05:14:05;2.22;;;1.65;;
77359;SDS011;66426;51.454;7.266;2023-03-23T05:15:06;3.75;;;1.60;;
77359;SDS011;66426;51.454;7.266;2023-03-23T05:16:08;2.10;;;1.60;;
77359;SDS011;66426;51.454;7.266;2023-03-23T05:17:08;2.28;;;1.60;;
77359;SDS011;66426;51.454;7.266;2023-03-23T05:18:09;2.88;;;1.50;;
77359;SDS011;66426;51.454;7.266;2023-03-23T05:19:11;3.45;;;1.40;;
77359;SDS011;66426;51.454;7.266;2023-03-23T05:20:13;1.83;;;1.40;;
77359;SDS011;66426;51.454;7.266;2023-03-23T05:21:14;3.67;;;1.67;;
77359;SDS011;66426;51.454;7.266;2023-03-23T05:22:15;1.73;;;1.40;;
77359;SDS011;66426;51.454;7.266;2023-03-23T05:23:17;2.13;;;1.60;;
77359;SDS011;66426;51.454;7.266;2023-03-23T05:24:20;3.67;;;1.58;;
77359;SDS011;66426;51.454;7.266;2023-03-23T05:25:21;2.90;;;1.77;;
77359;SDS011;66426;51.454;7.266;2023-03-23T05:26:23;1.70;;;1.30;;
77359;SDS011;66426;51.454;7.266;2023-03-23T05:27:29;1.50;;;1.40;;
77359;SDS011;66426;51.454;7.266;2023-03-23T05:28:30;1.52;;;1.35;;
77359;SDS011;66426;51.454;7.266;2023-03-23T05:29:31;2.65;;;1.70;;
77359;SDS011;66426;51.454;7.266;2023-03-23T05:30:32;3.05;;;1.65;;
77359;SDS011;66426;51.454;7.266;2023-03-23T05:31:33;3.42;;;1.50;;
77359;SDS011;66426;51.454;7.266;2023-03-23T05:32:33;2.55;;;1.70;;
77359;SDS011;66426;51.454;7.266;2023-03-23T05:33:34;2.33;;;1.50;;
77359;SDS011;66426;51.454;7.266;2023-03-23T05:34:35;2.88;;;1.50;;
77359;SDS011;66426;51.454;7.266;2023-03-23T05:35:35;4.18;;;1.70;;
77359;SDS011;66426;51.454;7.266;2023-03-23T05:36:36;2.47;;;1.50;;
77359;SDS011;66426;51.454;7.266;2023-03-23T05:37:37;2.08;;;1.40;;
77359;SDS011;66426;51.454;7.266;2023-03-23T05:38:40;2.15;;;1.40;;
77359;SDS011;66426;51.454;7.266;2023-03-23T05:39:45;1.67;;;1.42;;
77359;SDS011;66426;51.454;7.266;2023-03-23T05:40:46;2.88;;;1.40;;
77359;SDS011;66426;51.454;7.266;2023-03-23T05:41:46;2.05;;;1.52;;
77359;SDS011;66426;51.454;7.266;2023-03-23T05:42:47;4.57;;;1.70;;
77359;SDS011;66426;51.454;7.266;2023-03-23T05:43:48;3.60;;;1.60;;
77359;SDS011;66426;51.454;7.266;2023-03-23T05:44:49;1.83;;;1.33;;
77359;SDS011;66426;51.454;7.266;2023-03-23T05:45:49;3.45;;;1.40;;
77359;SDS011;66426;51.454;7.266;2023-03-23T05:46:50;3.78;;;1.58;;
77359;SDS011;66426;51.454;7.266;2023-03-23T05:47:51;5.75;;;2.00;;
77359;SDS011;66426;51.454;7.266;2023-03-23T05:48:51;4.30;;;1.77;;
77359;SDS011;66426;51.454;7.266;2023-03-23T05:49:52;3.03;;;1.50;;
77359;SDS011;66426;51.454;7.266;2023-03-23T05:50:53;2.47;;;1.58;;
77359;SDS011;66426;51.454;7.266;2023-03-23T05:51:54;2.72;;;1.75;;
77359;SDS011;66426;51.454;7.266;2023-03-23T05:52:55;3.20;;;1.60;;
77359;SDS011;66426;51.454;7.266;2023-03-23T05:53:57;3.28;;;1.70;;
77359;SDS011;66426;51.454;7.266;2023-03-23T05:54:58;3.00;;;1.70;;
77359;SDS011;66426;51.454;7.266;2023-03-23T05:55:59;3.35;;;1.60;;
77359;SDS011;66426;51.454;7.266;2023-03-23T05:57:01;2.92;;;1.65;;
77359;SDS011;66426;51.454;7.266;2023-03-23T05:58:01;2.20;;;1.63;;
77359;SDS011;66426;51.454;7.266;2023-03-23T05:59:02;2.50;;;1.60;;
77359;SDS011;66426;51.454;7.266;2023-03-23T06:00:03;3.53;;;1.50;;
77359;SDS011;66426;51.454;7.266;2023-03-23T06:01:20;2.10;;;1.50;;
77359;SDS011;66426;51.454;7.266;2023-03-23T06:02:21;3.83;;;1.50;;
77359;SDS011;66426;51.454;7.266;2023-03-23T06:03:23;2.00;;;1.40;;
77359;SDS011;66426;51.454;7.266;2023-03-23T06:04:24;2.78;;;1.60;;
77359;SDS011;66426;51.454;7.266;2023-03-23T06:05:25;2.42;;;1.60;;
77359;SDS011;66426;51.454;7.266;2023-03-23T06:06:26;2.17;;;1.40;;
77359;SDS011;66426;51.454;7.266;2023-03-23T06:07:27;2.72;;;1.52;;
77359;SDS011;66426;51.454;7.266;2023-03-23T06:08:27;1.90;;;1.73;;
77359;SDS011;66426;51.454;7.266;2023-03-23T06:09:30;2.75;;;1.60;;
77359;SDS011;66426;51.454;7.266;2023-03-23T06:10:31;2.85;;;1.55;;
77359;SDS011;66426;51.454;7.266;2023-03-23T06:11:33;3.53;;;1.63;;
77359;SDS011;66426;51.454;7.266;2023-03-23T06:12:34;2.50;;;1.90;;
77359;SDS011;66426;51.454;7.266;2023-03-23T06:13:35;3.03;;;1.80;;
77359;SDS011;66426;51.454;7.266;2023-03-23T06:14:35;4.40;;;2.58;;
77359;SDS011;66426;51.454;7.266;2023-03-23T06:15:36;2.42;;;1.70;;
77359;SDS011;66426;51.454;7.266;2023-03-23T06:16:37;3.35;;;1.63;;
77359;SDS011;66426;51.454;7.266;2023-03-23T06:17:38;3.58;;;1.90;;